Saturday, September 22, 2018, 3:12 AM EDT
Back to Local

KAGC, Pittsburgh Allegheny Cty.

Location: West Mifflin, PA, United States Lat: 40.35
Local Time: 3:12 AM EDT ( 7:12 GMT) Lon: -79.917
Time Zone: US/Eastern Elev: 1253 ft

Show me the last for .
Show Decoded

2018-09-22 02:53 METAR KAGC 220653Z 34008G15KT 10SM CLR 18/15 A3012 RMK AO2 SLP195 T01780150 =
2018-09-22 01:53 METAR KAGC 220553Z 34012G26KT 10SM FEW060 19/16 A3009 RMK AO2 PK WND 35026/0546
                 SLP184 60091 T01890161 10272 20189 53021 =
2018-09-22 00:53 METAR KAGC 220453Z 33008KT 9SM FEW020 SCT060 21/20 A3007 RMK AO2 SLP176
                 T02110200 403060200 =
2018-09-22 00:21 METAR KAGC 220421Z 32005KT 8SM FEW009 SCT014 BKN034 21/21 A3006 RMK AO2
                 T02110206 =
2018-09-22 00:06 METAR KAGC 220406Z VRB03KT 7SM FEW009 BKN014 OVC055 21/21 A3006 RMK AO2
                 T02110211 =
2018-09-22 00:03 METAR KAGC 220403Z 32006KT 8SM SCT014 BKN021 OVC060 21/21 A3006 RMK AO2
                 T02110211 =
2018-09-21 23:53 METAR KAGC 220353Z AUTO VRB06KT 10SM FEW019 SCT024 OVC060 21/21 A3005 RMK AO2
                 RAE32 SLP168 P0003 T02110211 =
2018-09-21 22:53 METAR KAGC 220253Z AUTO 24010G19KT 3SM +RA BR FEW030 BKN043 OVC050 22/21 A3003
                 RMK AO2 SLP164 P0016 60088 T02170211 51024 =
2018-09-21 21:53 METAR KAGC 220153Z AUTO 25012KT 4SM RA BR SCT044 BKN070 OVC090 21/21 A3003 RMK
                 AO2 SLP164 P0037 T02110206 =
2018-09-21 21:14 METAR KAGC 220114Z 24011G22KT 3SM -RA BR BKN033 OVC070 21/20 A3001 RMK AO2 LTG
                 DSNT W AND NW P0023 T02060200 =
2018-09-21 20:53 METAR KAGC 220053Z 28016G29KT 1SM R28/4500VP6000FT +RA BR BKN023 BKN028 OVC046
                 20/19 A3001 RMK AO2 PK WND 33050/0028 LTG DSNT W RAB31 SLP160 P0035 T02000194 =
2018-09-21 20:46 METAR KAGC 220046Z 29011G26KT 270V340 1 3/4SM R28/4500VP6000FT +RA BR FEW018
                 BKN039 OVC046 21/20 A3001 RMK AO2 PK WND 33050/0028 LTG DSNT W RAB31 P0021
                 T02060200 =
2018-09-21 19:53 METAR KAGC 212353Z 21013G20KT 10SM BKN120 27/21 A2996 RMK AO2 SLP138 T02720206
                 10306 20267 53004 =
2018-09-21 18:53 METAR KAGC 212253Z 21010G20KT 10SM CLR 27/21 A2992 RMK AO2 SLP127 T02720206 =
2018-09-21 17:53 METAR KAGC 212153Z 19012G19KT 10SM SCT060 29/21 A2992 RMK AO2 SLP127 T02890206 =
2018-09-21 16:53 METAR KAGC 212053Z 22014G28KT 10SM SCT060 29/20 A2994 RMK AO2 PK WND 22030/2017
                 SLP134 T02940200 56020 =
2018-09-21 15:53 METAR KAGC 211953Z 21017G24KT 10SM FEW060 30/20 A2996 RMK AO2 PK WND 22028/1913
                 SLP139 T03000200 =
2018-09-21 14:53 METAR KAGC 211853Z 22014G25KT 10SM FEW050 30/21 A2998 RMK AO2 SLP147 T03000206 =
2018-09-21 13:53 METAR KAGC 211753Z 21013G23KT 10SM CLR 29/21 A3001 RMK AO2 SLP155 T02940206
                 10294 20211 58021 =
2018-09-21 12:53 METAR KAGC 211653Z 21017G24KT 10SM CLR 29/21 A3003 RMK AO2 SLP162 T02890206 =
2018-09-21 11:53 METAR KAGC 211553Z 23012G19KT 10SM CLR 28/21 A3006 RMK AO2 SLP173 T02830211 =
2018-09-21 10:53 METAR KAGC 211453Z 21016G23KT 10SM CLR 26/21 A3007 RMK AO2 SLP177 T02610211
                 58006 =
2018-09-21 09:53 METAR KAGC 211353Z 20016G22KT 10SM CLR 24/21 A3008 RMK AO2 SLP180 T02440206 =
2018-09-21 08:53 METAR KAGC 211253Z 19011KT 10SM CLR 23/20 A3009 RMK AO2 SLP184 T02280200 =
2018-09-21 07:53 METAR KAGC 211153Z 18008KT 10SM CLR 21/19 A3009 RMK AO2 SLP184 T02110194 10217
                 20211 50004 =
2018-09-21 06:53 METAR KAGC 211053Z 18008KT 10SM SCT050 21/19 A3009 RMK AO2 SLP185 T02110194 =
2018-09-21 05:53 METAR KAGC 210953Z 17006KT 10SM CLR 21/19 A3009 RMK AO2 SLP183 T02110194 =
2018-09-21 04:53 METAR KAGC 210853Z 18006KT 10SM CLR 21/19 A3008 RMK AO2 SLP179 T02110194 56005 =
2018-09-21 03:53 METAR KAGC 210753Z 18008KT 10SM CLR 22/19 A3008 RMK AO2 SLP179 T02170194 =

Support USWX by starting your Amazon purchase here.